sensor_id;sensor_type;location;lat;lon;timestamp;temperature;humidity
2543;DHT22;1116;51.502;7.414;2023-07-28T00:00:17;18.20;99.90
2543;DHT22;1116;51.502;7.414;2023-07-28T00:02:48;18.10;99.90
2543;DHT22;1116;51.502;7.414;2023-07-28T00:05:19;18.10;99.90
2543;DHT22;1116;51.502;7.414;2023-07-28T00:07:50;18.20;99.90
2543;DHT22;1116;51.502;7.414;2023-07-28T00:10:21;18.20;99.90
2543;DHT22;1116;51.502;7.414;2023-07-28T00:12:55;18.10;99.90
2543;DHT22;1116;51.502;7.414;2023-07-28T00:15:26;18.20;99.90
2543;DHT22;1116;51.502;7.414;2023-07-28T00:17:57;18.10;99.90
2543;DHT22;1116;51.502;7.414;2023-07-28T00:20:29;18.10;99.90
2543;DHT22;1116;51.502;7.414;2023-07-28T00:23:00;18.10;99.90
2543;DHT22;1116;51.502;7.414;2023-07-28T00:25:32;18.10;99.90
2543;DHT22;1116;51.502;7.414;2023-07-28T00:28:05;18.10;99.90
2543;DHT22;1116;51.502;7.414;2023-07-28T00:30:37;18.10;99.90
2543;DHT22;1116;51.502;7.414;2023-07-28T00:33:08;18.10;99.90
2543;DHT22;1116;51.502;7.414;2023-07-28T00:35:39;18.00;99.90
2543;DHT22;1116;51.502;7.414;2023-07-28T00:38:10;18.00;99.90
2543;DHT22;1116;51.502;7.414;2023-07-28T00:40:42;18.00;99.90
2543;DHT22;1116;51.502;7.414;2023-07-28T00:43:18;18.10;99.90
2543;DHT22;1116;51.502;7.414;2023-07-28T00:45:50;18.10;99.90
2543;DHT22;1116;51.502;7.414;2023-07-28T00:48:24;18.10;99.90
2543;DHT22;1116;51.502;7.414;2023-07-28T00:50:55;18.00;99.90
2543;DHT22;1116;51.502;7.414;2023-07-28T00:53:26;18.00;99.90
2543;DHT22;1116;51.502;7.414;2023-07-28T00:55:58;18.00;99.90
2543;DHT22;1116;51.502;7.414;2023-07-28T00:58:31;18.00;99.90
2543;DHT22;1116;51.502;7.414;2023-07-28T01:01:03;18.00;99.90
2543;DHT22;1116;51.502;7.414;2023-07-28T01:03:34;18.00;99.90
2543;DHT22;1116;51.502;7.414;2023-07-28T01:06:15;18.10;99.90
2543;DHT22;1116;51.502;7.414;2023-07-28T01:08:52;18.10;99.90
2543;DHT22;1116;51.502;7.414;2023-07-28T01:11:24;18.10;99.90
2543;DHT22;1116;51.502;7.414;2023-07-28T01:13:58;18.10;99.90
2543;DHT22;1116;51.502;7.414;2023-07-28T01:16:29;18.10;99.90
2543;DHT22;1116;51.502;7.414;2023-07-28T01:19:01;18.10;99.90
2543;DHT22;1116;51.502;7.414;2023-07-28T01:21:32;18.00;99.90
2543;DHT22;1116;51.502;7.414;2023-07-28T01:24:09;18.10;99.90
2543;DHT22;1116;51.502;7.414;2023-07-28T01:26:46;18.10;99.90
2543;DHT22;1116;51.502;7.414;2023-07-28T01:29:19;18.20;99.90
2543;DHT22;1116;51.502;7.414;2023-07-28T01:31:51;18.10;99.90
2543;DHT22;1116;51.502;7.414;2023-07-28T01:34:23;18.20;99.90
2543;DHT22;1116;51.502;7.414;2023-07-28T01:36:54;18.10;99.90
2543;DHT22;1116;51.502;7.414;2023-07-28T01:39:25;18.10;99.90
2543;DHT22;1116;51.502;7.414;2023-07-28T01:41:59;18.20;99.90
2543;DHT22;1116;51.502;7.414;2023-07-28T01:44:30;18.10;99.90
2543;DHT22;1116;51.502;7.414;2023-07-28T01:47:01;18.10;99.90
2543;DHT22;1116;51.502;7.414;2023-07-28T01:49:32;18.10;99.90
2543;DHT22;1116;51.502;7.414;2023-07-28T01:52:04;18.10;99.90
2543;DHT22;1116;51.502;7.414;2023-07-28T01:54:35;18.10;99.90
2543;DHT22;1116;51.502;7.414;2023-07-28T01:57:09;18.10;99.90
2543;DHT22;1116;51.502;7.414;2023-07-28T01:59:40;18.20;99.90
2543;DHT22;1116;51.502;7.414;2023-07-28T02:02:11;18.10;99.90
2543;DHT22;1116;51.502;7.414;2023-07-28T02:04:42;18.20;99.90
2543;DHT22;1116;51.502;7.414;2023-07-28T02:07:14;18.20;99.90
2543;DHT22;1116;51.502;7.414;2023-07-28T02:09:45;18.20;99.90
2543;DHT22;1116;51.502;7.414;2023-07-28T02:12:18;18.20;99.90
2543;DHT22;1116;51.502;7.414;2023-07-28T02:14:50;18.10;99.90
2543;DHT22;1116;51.502;7.414;2023-07-28T02:17:21;18.20;99.90
2543;DHT22;1116;51.502;7.414;2023-07-28T02:19:52;18.20;99.90
2543;DHT22;1116;51.502;7.414;2023-07-28T02:22:23;18.20;99.90
2543;DHT22;1116;51.502;7.414;2023-07-28T02:24:54;18.20;99.90
2543;DHT22;1116;51.502;7.414;2023-07-28T02:27:31;18.20;99.90
2543;DHT22;1116;51.502;7.414;2023-07-28T02:30:03;18.40;99.90
2543;DHT22;1116;51.502;7.414;2023-07-28T02:32:35;18.20;99.90
2543;DHT22;1116;51.502;7.414;2023-07-28T02:35:07;18.20;99.90
2543;DHT22;1116;51.502;7.414;2023-07-28T02:37:38;18.20;99.90
2543;DHT22;1116;51.502;7.414;2023-07-28T02:40:11;18.20;99.90
2543;DHT22;1116;51.502;7.414;2023-07-28T02:42:45;18.20;99.90
2543;DHT22;1116;51.502;7.414;2023-07-28T02:45:19;18.20;99.90
2543;DHT22;1116;51.502;7.414;2023-07-28T02:47:50;18.20;99.90
2543;DHT22;1116;51.502;7.414;2023-07-28T02:50:21;18.30;99.90
2543;DHT22;1116;51.502;7.414;2023-07-28T02:52:53;18.30;99.90
2543;DHT22;1116;51.502;7.414;2023-07-28T02:55:24;18.30;99.90
2543;DHT22;1116;51.502;7.414;2023-07-28T02:57:57;18.30;99.90
2543;DHT22;1116;51.502;7.414;2023-07-28T03:00:28;18.30;99.90
2543;DHT22;1116;51.502;7.414;2023-07-28T03:02:59;18.30;99.90
2543;DHT22;1116;51.502;7.414;2023-07-28T03:05:31;18.50;99.90
2543;DHT22;1116;51.502;7.414;2023-07-28T03:08:02;18.70;99.90
2543;DHT22;1116;51.502;7.414;2023-07-28T03:10:33;18.30;99.90
2543;DHT22;1116;51.502;7.414;2023-07-28T03:13:07;18.30;99.90
2543;DHT22;1116;51.502;7.414;2023-07-28T03:15:38;18.30;99.90
2543;DHT22;1116;51.502;7.414;2023-07-28T03:18:09;18.30;99.90
2543;DHT22;1116;51.502;7.414;2023-07-28T03:20:40;18.30;99.90
2543;DHT22;1116;51.502;7.414;2023-07-28T03:23:11;18.30;99.90
2543;DHT22;1116;51.502;7.414;2023-07-28T03:25:42;18.30;99.90
2543;DHT22;1116;51.502;7.414;2023-07-28T03:28:15;18.30;99.90
2543;DHT22;1116;51.502;7.414;2023-07-28T03:30:47;18.40;99.90
2543;DHT22;1116;51.502;7.414;2023-07-28T03:33:18;18.30;99.90
2543;DHT22;1116;51.502;7.414;2023-07-28T03:35:49;18.30;99.90
2543;DHT22;1116;51.502;7.414;2023-07-28T03:38:20;18.30;99.90
2543;DHT22;1116;51.502;7.414;2023-07-28T03:40:52;18.30;99.90
2543;DHT22;1116;51.502;7.414;2023-07-28T03:43:26;18.50;99.90
2543;DHT22;1116;51.502;7.414;2023-07-28T03:45:57;18.30;99.90
2543;DHT22;1116;51.502;7.414;2023-07-28T03:48:28;18.30;99.90
2543;DHT22;1116;51.502;7.414;2023-07-28T03:50:59;18.40;99.90
2543;DHT22;1116;51.502;7.414;2023-07-28T03:53:31;18.40;99.90
2543;DHT22;1116;51.502;7.414;2023-07-28T03:56:04;18.30;99.90
2543;DHT22;1116;51.502;7.414;2023-07-28T03:58:37;18.40;99.90
2543;DHT22;1116;51.502;7.414;2023-07-28T04:01:08;18.50;99.90
2543;DHT22;1116;51.502;7.414;2023-07-28T04:03:39;18.50;99.90
2543;DHT22;1116;51.502;7.414;2023-07-28T04:06:11;18.70;99.90
2543;DHT22;1116;51.502;7.414;2023-07-28T04:08:42;18.40;99.90
2543;DHT22;1116;51.502;7.414;2023-07-28T04:11:13;18.40;99.90
2543;DHT22;1116;51.502;7.414;2023-07-28T04:13:47;18.40;99.90
2543;DHT22;1116;51.502;7.414;2023-07-28T04:16:18;18.50;99.90
2543;DHT22;1116;51.502;7.414;2023-07-28T04:18:49;18.50;99.90
2543;DHT22;1116;51.502;7.414;2023-07-28T04:21:20;18.60;99.90
2543;DHT22;1116;51.502;7.414;2023-07-28T04:23:51;18.60;99.90
2543;DHT22;1116;51.502;7.414;2023-07-28T04:26:23;18.60;99.90
2543;DHT22;1116;51.502;7.414;2023-07-28T04:28:57;18.60;99.90
2543;DHT22;1116;51.502;7.414;2023-07-28T04:31:28;18.60;99.90
2543;DHT22;1116;51.502;7.414;2023-07-28T04:33:59;18.60;99.90
2543;DHT22;1116;51.502;7.414;2023-07-28T04:36:32;18.60;99.90
2543;DHT22;1116;51.502;7.414;2023-07-28T04:39:03;18.60;99.90
2543;DHT22;1116;51.502;7.414;2023-07-28T04:41:34;18.50;99.90
2543;DHT22;1116;51.502;7.414;2023-07-28T04:44:08;18.60;99.90
2543;DHT22;1116;51.502;7.414;2023-07-28T04:46:39;18.60;99.90
2543;DHT22;1116;51.502;7.414;2023-07-28T04:49:10;18.70;99.90
2543;DHT22;1116;51.502;7.414;2023-07-28T04:51:41;18.60;99.90
2543;DHT22;1116;51.502;7.414;2023-07-28T04:54:12;18.70;99.90
2543;DHT22;1116;51.502;7.414;2023-07-28T04:56:43;18.60;99.90
2543;DHT22;1116;51.502;7.414;2023-07-28T04:59:17;18.90;99.90
2543;DHT22;1116;51.502;7.414;2023-07-28T05:01:48;18.60;99.90
2543;DHT22;1116;51.502;7.414;2023-07-28T05:04:21;18.60;99.90
2543;DHT22;1116;51.502;7.414;2023-07-28T05:06:53;18.70;99.90
2543;DHT22;1116;51.502;7.414;2023-07-28T05:09:24;18.70;99.90
2543;DHT22;1116;51.502;7.414;2023-07-28T05:11:57;18.70;99.90
2543;DHT22;1116;51.502;7.414;2023-07-28T05:14:31;18.80;99.90
2543;DHT22;1116;51.502;7.414;2023-07-28T05:17:02;18.80;99.90
2543;DHT22;1116;51.502;7.414;2023-07-28T05:19:33;18.80;99.90
2543;DHT22;1116;51.502;7.414;2023-07-28T05:22:05;18.90;99.90
2543;DHT22;1116;51.502;7.414;2023-07-28T05:24:36;19.00;99.90
2543;DHT22;1116;51.502;7.414;2023-07-28T05:27:07;19.00;99.90
2543;DHT22;1116;51.502;7.414;2023-07-28T05:29:42;19.60;99.90
2543;DHT22;1116;51.502;7.414;2023-07-28T05:32:13;19.10;99.90
2543;DHT22;1116;51.502;7.414;2023-07-28T05:34:45;19.20;99.90
2543;DHT22;1116;51.502;7.414;2023-07-28T05:37:16;19.20;99.90
2543;DHT22;1116;51.502;7.414;2023-07-28T05:39:47;19.40;99.90
2543;DHT22;1116;51.502;7.414;2023-07-28T05:42:19;19.40;99.90
2543;DHT22;1116;51.502;7.414;2023-07-28T05:44:52;19.40;99.90
2543;DHT22;1116;51.502;7.414;2023-07-28T05:47:23;19.50;99.90
2543;DHT22;1116;51.502;7.414;2023-07-28T05:49:54;19.60;99.90
2543;DHT22;1116;51.502;7.414;2023-07-28T05:52:25;20.00;99.90
2543;DHT22;1116;51.502;7.414;2023-07-28T05:54:56;20.50;99.90
2543;DHT22;1116;51.502;7.414;2023-07-28T05:57:27;20.40;99.90
2543;DHT22;1116;51.502;7.414;2023-07-28T06:00:01;20.40;99.90
2543;DHT22;1116;51.502;7.414;2023-07-28T06:02:32;20.50;99.90
2543;DHT22;1116;51.502;7.414;2023-07-28T06:05:04;20.30;99.90
2543;DHT22;1116;51.502;7.414;2023-07-28T06:07:35;20.10;99.90
2543;DHT22;1116;51.502;7.414;2023-07-28T06:10:07;20.00;99.90
2543;DHT22;1116;51.502;7.414;2023-07-28T06:12:38;20.10;99.90
2543;DHT22;1116;51.502;7.414;2023-07-28T06:15:12;20.10;99.90
2543;DHT22;1116;51.502;7.414;2023-07-28T06:17:43;20.10;99.90
2543;DHT22;1116;51.502;7.414;2023-07-28T06:20:14;20.00;99.90
2543;DHT22;1116;51.502;7.414;2023-07-28T06:22:45;19.80;99.90
2543;DHT22;1116;51.502;7.414;2023-07-28T06:25:35;19.80;99.90
2543;DHT22;1116;51.502;7.414;2023-07-28T06:28:17;19.70;99.90
2543;DHT22;1116;51.502;7.414;2023-07-28T06:30:53;19.70;99.90
2543;DHT22;1116;51.502;7.414;2023-07-28T06:33:24;19.80;99.90
2543;DHT22;1116;51.502;7.414;2023-07-28T06:35:55;19.80;99.90
2543;DHT22;1116;51.502;7.414;2023-07-28T06:38:26;19.80;99.90
2543;DHT22;1116;51.502;7.414;2023-07-28T06:40:57;19.80;99.90
2543;DHT22;1116;51.502;7.414;2023-07-28T06:43:29;19.70;99.90
2543;DHT22;1116;51.502;7.414;2023-07-28T06:46:02;19.70;99.90
2543;DHT22;1116;51.502;7.414;2023-07-28T06:48:33;19.70;99.90
2543;DHT22;1116;51.502;7.414;2023-07-28T06:51:04;19.70;99.90
2543;DHT22;1116;51.502;7.414;2023-07-28T06:53:35;19.80;99.90
2543;DHT22;1116;51.502;7.414;2023-07-28T06:56:06;19.80;99.90
2543;DHT22;1116;51.502;7.414;2023-07-28T06:58:37;19.80;99.90
2543;DHT22;1116;51.502;7.414;2023-07-28T07:01:11;19.90;99.90
2543;DHT22;1116;51.502;7.414;2023-07-28T07:03:42;20.00;99.90
2543;DHT22;1116;51.502;7.414;2023-07-28T07:06:13;20.10;99.90
2543;DHT22;1116;51.502;7.414;2023-07-28T07:08:45;20.10;99.90
2543;DHT22;1116;51.502;7.414;2023-07-28T07:11:15;20.20;99.90
2543;DHT22;1116;51.502;7.414;2023-07-28T07:13:46;20.20;99.90
2543;DHT22;1116;51.502;7.414;2023-07-28T07:16:20;20.40;99.90
2543;DHT22;1116;51.502;7.414;2023-07-28T07:18:51;20.60;99.90
2543;DHT22;1116;51.502;7.414;2023-07-28T07:21:23;20.80;99.90
2543;DHT22;1116;51.502;7.414;2023-07-28T07:23:54;20.80;99.90
2543;DHT22;1116;51.502;7.414;2023-07-28T07:26:25;21.10;99.90
2543;DHT22;1116;51.502;7.414;2023-07-28T07:28:56;20.70;99.90
2543;DHT22;1116;51.502;7.414;2023-07-28T07:31:30;20.90;99.90
2543;DHT22;1116;51.502;7.414;2023-07-28T07:34:01;21.00;99.90
2543;DHT22;1116;51.502;7.414;2023-07-28T07:36:32;20.80;99.90
2543;DHT22;1116;51.502;7.414;2023-07-28T07:39:05;20.70;99.90
2543;DHT22;1116;51.502;7.414;2023-07-28T07:41:36;20.60;99.90
2543;DHT22;1116;51.502;7.414;2023-07-28T07:44:07;20.60;99.90
2543;DHT22;1116;51.502;7.414;2023-07-28T07:46:44;20.60;99.90
2543;DHT22;1116;51.502;7.414;2023-07-28T07:49:15;20.70;99.90
2543;DHT22;1116;51.502;7.414;2023-07-28T07:51:46;20.80;99.90
2543;DHT22;1116;51.502;7.414;2023-07-28T07:54:17;20.70;99.90
2543;DHT22;1116;51.502;7.414;2023-07-28T07:56:48;20.80;99.90
2543;DHT22;1116;51.502;7.414;2023-07-28T07:59:19;20.70;99.90
2543;DHT22;1116;51.502;7.414;2023-07-28T08:01:52;20.50;99.90
2543;DHT22;1116;51.502;7.414;2023-07-28T08:04:23;20.70;99.90
2543;DHT22;1116;51.502;7.414;2023-07-28T08:06:55;20.60;99.90
2543;DHT22;1116;51.502;7.414;2023-07-28T08:09:27;20.70;99.90
2543;DHT22;1116;51.502;7.414;2023-07-28T08:11:59;20.90;99.90
2543;DHT22;1116;51.502;7.414;2023-07-28T08:14:30;20.80;99.90
2543;DHT22;1116;51.502;7.414;2023-07-28T08:17:05;20.80;99.90
2543;DHT22;1116;51.502;7.414;2023-07-28T08:19:36;20.80;99.90
2543;DHT22;1116;51.502;7.414;2023-07-28T08:22:07;20.70;99.90
2543;DHT22;1116;51.502;7.414;2023-07-28T08:24:40;20.70;99.90
2543;DHT22;1116;51.502;7.414;2023-07-28T08:27:11;20.70;99.90
2543;DHT22;1116;51.502;7.414;2023-07-28T08:29:42;20.70;99.90
2543;DHT22;1116;51.502;7.414;2023-07-28T08:32:15;20.70;99.90
2543;DHT22;1116;51.502;7.414;2023-07-28T08:34:46;20.60;99.90
2543;DHT22;1116;51.502;7.414;2023-07-28T08:37:17;20.70;99.90
2543;DHT22;1116;51.502;7.414;2023-07-28T08:39:48;20.70;99.90
2543;DHT22;1116;51.502;7.414;2023-07-28T08:42:21;20.70;99.90
2543;DHT22;1116;51.502;7.414;2023-07-28T08:44:52;20.90;99.90
2543;DHT22;1116;51.502;7.414;2023-07-28T08:47:26;21.10;99.90
2543;DHT22;1116;51.502;7.414;2023-07-28T08:49:57;21.40;99.90
2543;DHT22;1116;51.502;7.414;2023-07-28T08:52:31;21.50;99.90
2543;DHT22;1116;51.502;7.414;2023-07-28T08:55:02;21.70;99.90
2543;DHT22;1116;51.502;7.414;2023-07-28T08:57:34;21.90;99.90
2543;DHT22;1116;51.502;7.414;2023-07-28T09:00:09;21.90;99.90
2543;DHT22;1116;51.502;7.414;2023-07-28T09:02:45;21.70;99.90
2543;DHT22;1116;51.502;7.414;2023-07-28T09:05:20;21.70;99.90
2543;DHT22;1116;51.502;7.414;2023-07-28T09:07:52;21.50;99.90
2543;DHT22;1116;51.502;7.414;2023-07-28T09:10:23;21.60;99.90
2543;DHT22;1116;51.502;7.414;2023-07-28T09:12:54;21.50;99.90
2543;DHT22;1116;51.502;7.414;2023-07-28T09:15:25;21.40;99.90
2543;DHT22;1116;51.502;7.414;2023-07-28T09:18:00;21.50;99.90
2543;DHT22;1116;51.502;7.414;2023-07-28T09:20:35;21.50;99.90
2543;DHT22;1116;51.502;7.414;2023-07-28T09:23:06;21.80;99.90
2543;DHT22;1116;51.502;7.414;2023-07-28T09:25:38;21.90;99.90
2543;DHT22;1116;51.502;7.414;2023-07-28T09:28:09;21.80;99.90
2543;DHT22;1116;51.502;7.414;2023-07-28T09:30:46;21.90;99.90
2543;DHT22;1116;51.502;7.414;2023-07-28T09:33:32;22.00;99.90
2543;DHT22;1116;51.502;7.414;2023-07-28T09:36:08;22.20;99.90
2543;DHT22;1116;51.502;7.414;2023-07-28T09:38:40;22.50;99.90
2543;DHT22;1116;51.502;7.414;2023-07-28T09:41:11;22.50;99.90
2543;DHT22;1116;51.502;7.414;2023-07-28T09:43:42;22.50;99.90
2543;DHT22;1116;51.502;7.414;2023-07-28T09:46:17;22.50;99.90
2543;DHT22;1116;51.502;7.414;2023-07-28T09:48:56;22.60;99.90
2543;DHT22;1116;51.502;7.414;2023-07-28T09:51:30;22.80;99.90
2543;DHT22;1116;51.502;7.414;2023-07-28T09:54:05;22.90;99.90
2543;DHT22;1116;51.502;7.414;2023-07-28T09:56:37;23.20;99.90
2543;DHT22;1116;51.502;7.414;2023-07-28T09:59:11;22.90;99.90
2543;DHT22;1116;51.502;7.414;2023-07-28T10:01:44;22.70;99.90
2543;DHT22;1116;51.502;7.414;2023-07-28T10:04:18;22.80;99.90
2543;DHT22;1116;51.502;7.414;2023-07-28T10:06:49;22.90;99.90
2543;DHT22;1116;51.502;7.414;2023-07-28T10:09:25;23.20;99.90
2543;DHT22;1116;51.502;7.414;2023-07-28T10:11:56;23.20;99.90
2543;DHT22;1116;51.502;7.414;2023-07-28T10:14:27;23.10;99.90
2543;DHT22;1116;51.502;7.414;2023-07-28T10:17:00;23.20;99.80
2543;DHT22;1116;51.502;7.414;2023-07-28T10:19:36;23.00;97.10
2543;DHT22;1116;51.502;7.414;2023-07-28T10:22:11;22.90;95.60
2543;DHT22;1116;51.502;7.414;2023-07-28T10:24:50;23.00;95.50
2543;DHT22;1116;51.502;7.414;2023-07-28T10:27:32;23.00;88.80
2543;DHT22;1116;51.502;7.414;2023-07-28T10:30:11;23.20;92.10
2543;DHT22;1116;51.502;7.414;2023-07-28T10:32:44;23.00;87.00
2543;DHT22;1116;51.502;7.414;2023-07-28T10:35:25;23.20;85.00
2543;DHT22;1116;51.502;7.414;2023-07-28T10:38:03;23.30;88.20
2543;DHT22;1116;51.502;7.414;2023-07-28T10:41:05;23.40;72.70
2543;DHT22;1116;51.502;7.414;2023-07-28T10:43:37;23.50;71.20
2543;DHT22;1116;51.502;7.414;2023-07-28T10:46:09;23.30;68.40
2543;DHT22;1116;51.502;7.414;2023-07-28T10:48:44;23.10;68.10
2543;DHT22;1116;51.502;7.414;2023-07-28T10:51:45;23.10;70.10
2543;DHT22;1116;51.502;7.414;2023-07-28T10:54:16;23.20;67.40
2543;DHT22;1116;51.502;7.414;2023-07-28T10:56:48;23.30;68.70
2543;DHT22;1116;51.502;7.414;2023-07-28T10:59:19;23.60;66.30
2543;DHT22;1116;51.502;7.414;2023-07-28T11:01:50;23.40;60.20
2543;DHT22;1116;51.502;7.414;2023-07-28T11:04:21;23.30;59.90
2543;DHT22;1116;51.502;7.414;2023-07-28T11:06:55;23.30;58.00
2543;DHT22;1116;51.502;7.414;2023-07-28T11:09:26;23.30;64.70
2543;DHT22;1116;51.502;7.414;2023-07-28T11:11:58;23.40;64.50
2543;DHT22;1116;51.502;7.414;2023-07-28T11:14:29;23.40;64.60
2543;DHT22;1116;51.502;7.414;2023-07-28T11:17:01;23.50;59.20
2543;DHT22;1116;51.502;7.414;2023-07-28T11:19:33;23.60;59.10
2543;DHT22;1116;51.502;7.414;2023-07-28T11:22:07;23.70;59.00
2543;DHT22;1116;51.502;7.414;2023-07-28T11:24:38;24.00;61.00
2543;DHT22;1116;51.502;7.414;2023-07-28T11:27:09;23.90;57.90
2543;DHT22;1116;51.502;7.414;2023-07-28T11:29:40;23.80;53.10
2543;DHT22;1116;51.502;7.414;2023-07-28T11:32:12;23.70;51.10
2543;DHT22;1116;51.502;7.414;2023-07-28T11:34:46;23.70;49.60
2543;DHT22;1116;51.502;7.414;2023-07-28T11:37:21;23.70;51.00
2543;DHT22;1116;51.502;7.414;2023-07-28T11:39:52;23.90;50.30
2543;DHT22;1116;51.502;7.414;2023-07-28T11:42:23;24.00;49.70
2543;DHT22;1116;51.502;7.414;2023-07-28T11:44:55;24.00;48.90
2543;DHT22;1116;51.502;7.414;2023-07-28T11:47:26;24.10;45.80
2543;DHT22;1116;51.502;7.414;2023-07-28T11:49:58;24.00;46.30
2543;DHT22;1116;51.502;7.414;2023-07-28T11:52:34;24.00;45.00
2543;DHT22;1116;51.502;7.414;2023-07-28T11:55:06;23.90;47.10
2543;DHT22;1116;51.502;7.414;2023-07-28T11:57:37;23.80;44.70
2543;DHT22;1116;51.502;7.414;2023-07-28T12:00:10;23.80;46.40
2543;DHT22;1116;51.502;7.414;2023-07-28T12:02:44;23.90;44.10
2543;DHT22;1116;51.502;7.414;2023-07-28T12:05:16;24.00;44.30
2543;DHT22;1116;51.502;7.414;2023-07-28T12:07:51;24.20;46.00
2543;DHT22;1116;51.502;7.414;2023-07-28T12:10:24;24.50;51.10
2543;DHT22;1116;51.502;7.414;2023-07-28T12:13:10;24.30;45.50
2543;DHT22;1116;51.502;7.414;2023-07-28T12:15:44;24.30;39.10
2543;DHT22;1116;51.502;7.414;2023-07-28T12:18:18;24.30;40.40
2543;DHT22;1116;51.502;7.414;2023-07-28T12:20:54;24.40;38.10
2543;DHT22;1116;51.502;7.414;2023-07-28T12:23:31;24.50;40.00
2543;DHT22;1116;51.502;7.414;2023-07-28T12:26:05;24.50;33.00
2543;DHT22;1116;51.502;7.414;2023-07-28T12:28:36;24.40;36.60
2543;DHT22;1116;51.502;7.414;2023-07-28T12:31:11;24.20;35.10
2543;DHT22;1116;51.502;7.414;2023-07-28T12:33:42;24.10;34.00
2543;DHT22;1116;51.502;7.414;2023-07-28T12:36:17;23.90;40.80
2543;DHT22;1116;51.502;7.414;2023-07-28T12:38:54;23.50;48.80
2543;DHT22;1116;51.502;7.414;2023-07-28T12:41:25;23.40;53.00
2543;DHT22;1116;51.502;7.414;2023-07-28T12:44:09;23.30;58.80
2543;DHT22;1116;51.502;7.414;2023-07-28T12:46:44;23.30;63.30
2543;DHT22;1116;51.502;7.414;2023-07-28T12:49:15;23.20;71.90
2543;DHT22;1116;51.502;7.414;2023-07-28T12:51:48;23.20;75.30
2543;DHT22;1116;51.502;7.414;2023-07-28T12:54:26;23.10;78.50
2543;DHT22;1116;51.502;7.414;2023-07-28T12:56:57;23.10;84.00
2543;DHT22;1116;51.502;7.414;2023-07-28T12:59:32;23.10;90.90
2543;DHT22;1116;51.502;7.414;2023-07-28T13:02:23;23.70;92.80
2543;DHT22;1116;51.502;7.414;2023-07-28T13:04:54;23.50;96.70
2543;DHT22;1116;51.502;7.414;2023-07-28T13:07:25;23.70;91.40
2543;DHT22;1116;51.502;7.414;2023-07-28T13:10:05;24.20;87.80
2543;DHT22;1116;51.502;7.414;2023-07-28T13:12:58;23.90;85.70
2543;DHT22;1116;51.502;7.414;2023-07-28T13:15:29;24.00;84.50
2543;DHT22;1116;51.502;7.414;2023-07-28T13:18:01;24.00;75.60
2543;DHT22;1116;51.502;7.414;2023-07-28T13:20:32;24.00;79.40
2543;DHT22;1116;51.502;7.414;2023-07-28T13:23:03;24.00;79.10
2543;DHT22;1116;51.502;7.414;2023-07-28T13:25:37;24.00;72.50
2543;DHT22;1116;51.502;7.414;2023-07-28T13:28:14;23.90;77.30
2543;DHT22;1116;51.502;7.414;2023-07-28T13:30:46;23.90;65.90
2543;DHT22;1116;51.502;7.414;2023-07-28T13:33:17;23.90;72.60
2543;DHT22;1116;51.502;7.414;2023-07-28T13:35:48;23.90;75.50
2543;DHT22;1116;51.502;7.414;2023-07-28T13:38:19;23.90;72.90
2543;DHT22;1116;51.502;7.414;2023-07-28T13:40:53;24.00;78.00
2543;DHT22;1116;51.502;7.414;2023-07-28T13:43:24;24.00;66.30
2543;DHT22;1116;51.502;7.414;2023-07-28T13:45:55;24.10;59.20
2543;DHT22;1116;51.502;7.414;2023-07-28T13:48:27;24.20;54.80
2543;DHT22;1116;51.502;7.414;2023-07-28T13:51:08;24.10;54.80
2543;DHT22;1116;51.502;7.414;2023-07-28T13:53:46;24.20;57.30
2543;DHT22;1116;51.502;7.414;2023-07-28T13:56:22;24.30;49.80
2543;DHT22;1116;51.502;7.414;2023-07-28T13:58:53;24.30;48.80
2543;DHT22;1116;51.502;7.414;2023-07-28T14:01:28;24.40;44.60
2543;DHT22;1116;51.502;7.414;2023-07-28T14:03:59;24.40;41.70
2543;DHT22;1116;51.502;7.414;2023-07-28T14:06:30;24.50;45.90
2543;DHT22;1116;51.502;7.414;2023-07-28T14:09:01;24.50;40.50
2543;DHT22;1116;51.502;7.414;2023-07-28T14:11:35;24.60;41.90
2543;DHT22;1116;51.502;7.414;2023-07-28T14:14:07;24.70;44.90
2543;DHT22;1116;51.502;7.414;2023-07-28T14:16:38;24.70;41.70
2543;DHT22;1116;51.502;7.414;2023-07-28T14:19:10;24.60;34.00
2543;DHT22;1116;51.502;7.414;2023-07-28T14:21:42;25.00;45.10
2543;DHT22;1116;51.502;7.414;2023-07-28T14:24:13;24.70;38.80
2543;DHT22;1116;51.502;7.414;2023-07-28T14:26:47;24.70;35.40
2543;DHT22;1116;51.502;7.414;2023-07-28T14:29:18;24.60;28.80
2543;DHT22;1116;51.502;7.414;2023-07-28T14:31:49;24.50;32.80
2543;DHT22;1116;51.502;7.414;2023-07-28T14:34:20;24.40;32.10
2543;DHT22;1116;51.502;7.414;2023-07-28T14:36:51;24.30;29.00
2543;DHT22;1116;51.502;7.414;2023-07-28T14:39:22;24.30;29.60
2543;DHT22;1116;51.502;7.414;2023-07-28T14:41:55;24.30;29.30
2543;DHT22;1116;51.502;7.414;2023-07-28T14:44:26;24.20;30.90
2543;DHT22;1116;51.502;7.414;2023-07-28T14:46:57;24.20;30.90
2543;DHT22;1116;51.502;7.414;2023-07-28T14:49:28;24.00;32.20
2543;DHT22;1116;51.502;7.414;2023-07-28T14:51:59;24.00;34.50
2543;DHT22;1116;51.502;7.414;2023-07-28T14:54:33;24.00;33.40
2543;DHT22;1116;51.502;7.414;2023-07-28T14:57:06;23.90;35.00
2543;DHT22;1116;51.502;7.414;2023-07-28T15:00:00;23.90;33.40
2543;DHT22;1116;51.502;7.414;2023-07-28T15:02:32;23.80;35.70
2543;DHT22;1116;51.502;7.414;2023-07-28T15:05:05;23.70;38.40
2543;DHT22;1116;51.502;7.414;2023-07-28T15:07:36;23.60;39.60
2543;DHT22;1116;51.502;7.414;2023-07-28T15:10:08;23.70;41.70
2543;DHT22;1116;51.502;7.414;2023-07-28T15:12:41;23.70;39.50
2543;DHT22;1116;51.502;7.414;2023-07-28T15:15:13;23.50;39.10
2543;DHT22;1116;51.502;7.414;2023-07-28T15:17:44;23.40;40.20
2543;DHT22;1116;51.502;7.414;2023-07-28T15:20:15;23.40;40.90
2543;DHT22;1116;51.502;7.414;2023-07-28T15:22:48;23.70;40.10
2543;DHT22;1116;51.502;7.414;2023-07-28T15:25:19;23.40;42.00
2543;DHT22;1116;51.502;7.414;2023-07-28T15:27:53;23.30;42.10
2543;DHT22;1116;51.502;7.414;2023-07-28T15:30:24;23.40;41.40
2543;DHT22;1116;51.502;7.414;2023-07-28T15:32:55;23.50;42.80
2543;DHT22;1116;51.502;7.414;2023-07-28T15:35:26;23.60;43.90
2543;DHT22;1116;51.502;7.414;2023-07-28T15:37:57;23.70;42.80
2543;DHT22;1116;51.502;7.414;2023-07-28T15:40:28;23.60;40.90
2543;DHT22;1116;51.502;7.414;2023-07-28T15:43:02;23.60;39.30
2543;DHT22;1116;51.502;7.414;2023-07-28T15:45:32;23.60;39.00
2543;DHT22;1116;51.502;7.414;2023-07-28T15:48:03;23.60;40.00
2543;DHT22;1116;51.502;7.414;2023-07-28T15:50:34;23.60;40.00
2543;DHT22;1116;51.502;7.414;2023-07-28T15:53:05;23.60;41.20
2543;DHT22;1116;51.502;7.414;2023-07-28T15:55:37;23.90;41.90
2543;DHT22;1116;51.502;7.414;2023-07-28T15:58:11;23.70;41.00
2543;DHT22;1116;51.502;7.414;2023-07-28T16:00:42;23.80;40.30
2543;DHT22;1116;51.502;7.414;2023-07-28T16:03:14;23.80;40.80
2543;DHT22;1116;51.502;7.414;2023-07-28T16:05:45;23.80;40.80
2543;DHT22;1116;51.502;7.414;2023-07-28T16:08:16;23.70;39.10
2543;DHT22;1116;51.502;7.414;2023-07-28T16:10:48;23.60;36.10
2543;DHT22;1116;51.502;7.414;2023-07-28T16:13:21;23.60;38.00
2543;DHT22;1116;51.502;7.414;2023-07-28T16:15:53;23.60;37.90
2543;DHT22;1116;51.502;7.414;2023-07-28T16:18:25;23.50;37.80
2543;DHT22;1116;51.502;7.414;2023-07-28T16:20:56;23.40;38.30
2543;DHT22;1116;51.502;7.414;2023-07-28T16:23:27;23.50;41.10
2543;DHT22;1116;51.502;7.414;2023-07-28T16:25:58;23.30;39.30
2543;DHT22;1116;51.502;7.414;2023-07-28T16:28:32;23.30;40.70
2543;DHT22;1116;51.502;7.414;2023-07-28T16:31:03;23.30;40.80
2543;DHT22;1116;51.502;7.414;2023-07-28T16:33:35;23.30;42.80
2543;DHT22;1116;51.502;7.414;2023-07-28T16:36:11;23.30;43.60